Flight Track Log - Related Links

Times and Time Zones

All times are in EDT time to prevent confusion due to time zone crossing. See the UAL4103 flight status page for this flight to view local times or setup timezone preferences in your user account.

Time Position Orientation Groundspeed Altitude Reporting Facility
EDT Latitude Longitude Course Direction KTS MPH feet Rate Location/Type
Sun 10:16:20 AM 40.0008 -82.8747 25° Northeast 144 166 1,400  Level Indianapolis Center
Sun 10:17:03 AM 39.9972 -82.8333 96° East 162 186 2,700 1,826 Climbing Indianapolis Center
Sun 10:17:29 AM 39.9939 -82.8089 100° East 170 196 3,500 1,855 Climbing Indianapolis Center
Sun 10:17:58 AM 39.9914 -82.7619 94° East 224 258 4,400 1,645 Climbing Indianapolis Center
Sun 10:18:31 AM 40.0039 -82.7267 65° Northeast 216 249 5,200 2,147 Climbing Indianapolis Center
Sun 10:19:00 AM 40.2167 -82.7175 90° East  Level FlightAware Approximate
Sun 10:19:33 AM 40.0739 -82.6936 20° North 263 303 7,800  Level Indianapolis Center
Sun 10:20:00 AM 40.2960 -82.6600 29° Northeast  Level FlightAware Approximate
Sun 10:20:35 AM 40.1647 -82.6658 13° North 282 325 10,300  Level Indianapolis Center
Sun 10:21:00 AM 40.3774 -82.6069 25° Northeast  Level FlightAware Approximate
Sun 10:21:37 AM 40.2475 -82.6397 14° North 298 343 11,500  Level Indianapolis Center
Sun 10:22:39 AM 40.3450 -82.6119 12° North 346 398 12,400 1,065 Climbing Indianapolis Center
Sun 10:23:41 AM 40.4464 -82.5786 14° North 369 425 13,700 1,306 Climbing Indianapolis Center
Sun 10:24:43 AM 40.5447 -82.5328 20° North 372 428 15,100 1,344 Climbing Indianapolis Center
Sun 10:25:46 AM 40.6431 -82.4872 19° North 371 427 16,500 1,248 Climbing Indianapolis Center
Sun 10:26:48 AM 40.7422 -82.4436 18° North 370 426 17,700 1,279 Climbing Indianapolis Center
Sun 10:27:48 AM 40.8428 -82.3972 19° North 368 423 19,100 1,400 Climbing Cleveland Center
Sun 10:28:48 AM 40.9414 -82.3533 19° North 368 423 20,500 1,400 Climbing Cleveland Center
Sun 10:29:48 AM 41.0422 -82.3064 19° North 374 430 21,900 1,400 Climbing Cleveland Center
Sun 10:30:48 AM 41.1556 -82.2572 18° North 380 437 23,300 1,350 Climbing Cleveland Center
Sun 10:31:48 AM 41.2583 -82.2072 20° North 385 443 24,600 1,200 Climbing Cleveland Center
Sun 10:32:48 AM 41.3614 -82.1572 20° North 391 450 25,700 700 Climbing Cleveland Center
Sun 10:33:48 AM 41.4664 -82.1017 22° Northeast 391 450 26,000 150 Climbing Cleveland Center
Sun 10:34:48 AM 41.5181 -81.9642 63° Northeast 385 443 26,000 350 Level Cleveland Center
Sun 10:35:48 AM 41.5508 -81.8317 72° East 399 459 26,700 900 Climbing Cleveland Center
Sun 10:36:48 AM 41.5817 -81.6797 75° East 417 480 27,800 1,150 Climbing Cleveland Center
Sun 10:37:48 AM 41.6119 -81.5358 74° East 408 470 29,000 1,200 Climbing Cleveland Center
Sun 10:38:48 AM 41.6381 -81.3917 76° East 399 459 30,200 1,000 Climbing Cleveland Center
Sun 10:39:48 AM 41.6706 -81.2336 75° East 399 459 31,000 400 Climbing Cleveland Center
Sun 10:40:48 AM 41.7025 -81.0808 74° East 404 465 31,000  Level Cleveland Center
Sun 10:41:48 AM 41.7344 -80.9225 75° East 424 488 31,000  Level Cleveland Center
Sun 10:42:48 AM 41.7367 -80.7614 89° East 431 496 31,000  Level Cleveland Center
Sun 10:43:48 AM 41.7222 -80.5969 97° East 431 496 31,000  Level Cleveland Center
Sun 10:44:48 AM 41.7119 -80.4358 95° East 436 502 31,000  Level Cleveland Center
Sun 10:45:48 AM 41.6989 -80.2744 96° East 441 507 31,000  Level Cleveland Center
Sun 10:46:48 AM 41.6900 -80.1133 94° East 441 507 31,000  Level Cleveland Center
Sun 10:47:48 AM 41.6789 -79.9658 96° East 441 507 31,000  Level Cleveland Center
Sun 10:48:48 AM 41.6656 -79.8050 96° East 441 507 31,000  Level Cleveland Center
Sun 10:49:48 AM 41.6539 -79.6300 95° East 436 502 31,000  Level Cleveland Center
Sun 10:50:48 AM 41.6397 -79.4689 97° East 436 502 31,000  Level Cleveland Center
Sun 10:51:48 AM 41.6278 -79.3053 96° East 436 502 31,000  Level Cleveland Center
Sun 10:52:48 AM 41.6133 -79.1444 97° East 441 507 31,000  Level Cleveland Center
Sun 10:53:48 AM 41.6028 -78.9808 95° East 441 507 31,000  Level Cleveland Center
Sun 10:54:48 AM 41.5878 -78.8175 97° East 441 507 31,000  Level Cleveland Center
Sun 10:55:48 AM 41.5728 -78.6569 97° East 441 507 31,000  Level Cleveland Center
Sun 10:56:48 AM 41.5594 -78.4936 96° East 441 507 31,000  Level Cleveland Center
Sun 10:57:48 AM 41.5439 -78.3275 97° East 441 507 31,000  Level Cleveland Center
Sun 10:58:31 AM 41.5356 -78.2208 96° East 440 506 31,000  Level New York Center
Sun 10:59:32 AM 41.5228 -78.0586 96° East 435 501 31,000  Level New York Center
Sun 11:00:29 AM 41.5033 -77.8986 99° East 435 501 31,000  Level New York Center
Sun 11:01:30 AM 41.4797 -77.7353 101° East 430 495 31,000  Level New York Center
Sun 11:02:30 AM 41.4575 -77.5781 101° East 435 501 31,000  Level New York Center
Sun 11:03:31 AM 41.4322 -77.4342 103° East 441 507 31,000 -197 Level New York Center
Sun 11:04:32 AM 41.3972 -77.2786 107° East 441 507 30,600 -1,525 Descending New York Center
Sun 11:05:29 AM 41.3661 -77.1208 105° East 441 507 28,000 -2,718 Descending New York Center
Sun 11:06:29 AM 41.3347 -76.9658 105° East 441 507 25,300 -2,727 Descending New York Center
Sun 11:07:30 AM 41.2997 -76.7969 105° East 441 507 22,500 -2,380 Descending New York Center
Sun 11:08:30 AM 41.2692 -76.6589 106° East 418 481 20,500 -1,900 Descending New York Center
Sun 11:09:30 AM 41.2406 -76.5183 105° East 400 460 18,700 -1,250 Descending New York Center
Sun 11:10:30 AM 41.2139 -76.3836 105° East 389 448 18,000 -344 Descending New York Center
Sun 11:11:32 AM 41.1883 -76.2603 105° East 389 448 18,000  Level New York Center
Sun 11:12:29 AM 41.1569 -76.1256 107° East 389 448 18,000 -50 Level New York Center
Sun 11:13:31 AM 41.1219 -75.9739 107° East 389 448 17,900 -878 Descending New York Center
Sun 11:14:32 AM 41.0861 -75.8444 110° East 389 448 16,200 -1,983 Descending New York Center
Sun 11:15:29 AM 41.0556 -75.7294 109° East 375 432 14,000 -1,627 Descending New York Center
Sun 11:16:30 AM 41.0189 -75.6031 111° Southeast 375 432 13,000 -545 Descending New York Center
Sun 11:17:30 AM 40.9808 -75.4628 110° East 375 432 12,900 -843 Descending New York Center
Sun 11:18:31 AM 40.9497 -75.3536 111° Southeast 365 420 11,300 -1,388 Descending New York Center
Sun 11:19:31 AM 40.9183 -75.2472 111° Southeast 332 382 10,100 -1,373 Descending New York Center
Sun 11:20:29 AM 40.8908 -75.1464 110° East 278 320 8,600 -1,322 Descending New York Center
Sun 11:21:29 AM 40.8650 -75.0597 111° Southeast 259 298 7,500 -793 Descending New York Center
Sun 11:22:30 AM 40.8411 -74.9706 109° East 254 292 7,000 -246 Descending New York Center
Sun 11:23:31 AM 40.8250 -74.8928 105° East 254 292 7,000 -99 Level New York Center
Sun 11:24:31 AM 40.8433 -74.7894 77° East 254 292 6,800 -496 Descending New York Center
Sun 11:25:32 AM 40.8567 -74.7025 79° East 254 292 6,000 -403 Descending New York Center
Sun 11:26:30 AM 40.8658 -74.6153 82° East 249 287 6,000  Level New York Center
Sun 11:27:09 AM 40.8333 -74.5833 143° Southeast 270 311 6,000  Level New York TRACON
Sun 11:28:09 AM 40.7500 -74.5667 171° South 264 304 6,000  Level New York TRACON
Sun 11:29:09 AM 40.6833 -74.5667 180° South 267 307 6,000  Level New York TRACON
Sun 11:30:03 AM 40.6167 -74.5500 169° South 267 307 6,000  Level New York TRACON
Sun 11:31:09 AM 40.5333 -74.5333 171° South 263 303 6,000 -48 Level New York TRACON
Sun 11:32:09 AM 40.4667 -74.5167 169° South 242 278 5,900 -474 Descending New York TRACON
Sun 11:33:03 AM 40.4167 -74.5000 166° South 213 245 5,100 -1,053 Descending New York TRACON
Sun 11:34:03 AM 40.3667 -74.4667 153° Southeast 211 243 3,900 -1,050 Descending New York TRACON
Sun 11:35:03 AM 40.3667 -74.4000 90° East 196 226 3,000 -450 Descending New York TRACON
Sun 11:36:03 AM 40.4000 -74.3500 49° Northeast 174 200 3,000  Level New York TRACON
Sun 11:37:03 AM 40.4333 -74.3333 21° North 175 201 3,000  Level New York TRACON
Sun 11:38:03 AM 40.4833 -74.3000 27° Northeast 169 194 3,000  Level New York TRACON
Sun 11:39:09 AM 40.5333 -74.2667 27° Northeast 168 193 3,000 -150 Level New York TRACON
Sun 11:40:03 AM 40.5667 -74.2500 21° North 168 193 2,700 -684 Descending New York TRACON
Sun 11:41:03 AM 40.6000 -74.2167 37° Northeast 165 190 1,700 -905 Descending New York TRACON
Sun 11:42:09 AM 40.6500 -74.2000 14° North 136 157 800 -818 Descending New York TRACON

Login

Don't have an account? Register now (free) for customized features, flight alerts, and more!